createdAt,value
2019-01-26T00:01:42.236Z,100.00
2019-01-26T00:04:11.568Z,100.00
2019-01-26T00:06:41.244Z,100.00
2019-01-26T00:09:11.386Z,100.00
2019-01-26T00:11:40.860Z,100.00
2019-01-26T00:14:10.434Z,100.00
2019-01-26T00:16:39.859Z,100.00
2019-01-26T00:19:09.280Z,100.00
2019-01-26T00:21:38.734Z,100.00
2019-01-26T00:24:08.239Z,100.00
2019-01-26T00:26:37.673Z,100.00
2019-01-26T00:29:07.111Z,100.00
2019-01-26T00:31:36.469Z,100.00
2019-01-26T00:34:06.047Z,100.00
2019-01-26T00:36:35.472Z,100.00
2019-01-26T00:39:07.983Z,100.00
2019-01-26T00:41:37.344Z,100.00
2019-01-26T00:44:06.698Z,100.00
2019-01-26T00:46:36.069Z,100.00
2019-01-26T00:49:05.561Z,100.00
2019-01-26T00:51:34.928Z,100.00
2019-01-26T00:54:04.291Z,100.00
2019-01-26T00:56:33.592Z,100.00
2019-01-26T00:59:03.073Z,100.00
2019-01-26T01:01:32.568Z,100.00
2019-01-26T01:04:02.014Z,100.00
2019-01-26T01:06:31.613Z,100.00
2019-01-26T01:09:01.000Z,100.00
2019-01-26T01:11:30.333Z,100.00
2019-01-26T01:13:59.722Z,100.00
2019-01-26T01:16:35.696Z,100.00
2019-01-26T01:19:00.235Z,100.00
2019-01-26T01:21:29.760Z,100.00
2019-01-26T01:23:59.167Z,100.00
2019-01-26T01:26:28.745Z,100.00
2019-01-26T01:28:58.223Z,100.00
2019-01-26T01:31:27.530Z,100.00
2019-01-26T01:33:56.850Z,100.00
2019-01-26T01:36:26.252Z,100.00
2019-01-26T01:38:55.629Z,100.00
2019-01-26T01:41:25.113Z,100.00
2019-01-26T01:43:54.918Z,100.00
2019-01-26T01:46:24.414Z,100.00
2019-01-26T01:48:54.115Z,100.00
2019-01-26T01:51:23.442Z,100.00
2019-01-26T01:53:52.751Z,100.00
2019-01-26T01:56:22.068Z,100.00
2019-01-26T01:58:51.477Z,100.00
2019-01-26T02:01:20.890Z,100.00
2019-01-26T02:03:50.296Z,100.00
2019-01-26T02:06:19.670Z,100.00
2019-01-26T02:08:49.044Z,100.00
2019-01-26T02:11:18.447Z,100.00
2019-01-26T02:13:49.181Z,100.00
2019-01-26T02:16:18.597Z,100.00
2019-01-26T02:18:47.982Z,100.00
2019-01-26T02:21:18.064Z,100.00
2019-01-26T02:23:47.515Z,100.00
2019-01-26T02:26:16.880Z,100.00
2019-01-26T02:28:46.241Z,100.00
2019-01-26T02:31:15.566Z,100.00
2019-01-26T02:33:44.895Z,100.00
2019-01-26T02:36:14.240Z,100.00
2019-01-26T02:38:43.570Z,100.00
2019-01-26T02:41:12.938Z,100.00
2019-01-26T02:43:42.364Z,100.00
2019-01-26T02:46:11.721Z,100.00
2019-01-26T02:48:41.070Z,100.00
2019-01-26T02:51:10.438Z,100.00
2019-01-26T02:53:39.821Z,100.00
2019-01-26T02:56:09.192Z,100.00
2019-01-26T02:58:38.602Z,100.00
2019-01-26T03:01:07.962Z,100.00
2019-01-26T03:03:38.409Z,100.00
2019-01-26T03:06:07.858Z,100.00
2019-01-26T03:08:37.243Z,100.00
2019-01-26T03:11:06.771Z,100.00
2019-01-26T03:13:36.157Z,100.00
2019-01-26T03:16:05.777Z,100.00
2019-01-26T03:18:35.256Z,100.00
2019-01-26T03:21:04.785Z,100.00
2019-01-26T03:23:34.215Z,100.00
2019-01-26T03:26:03.797Z,100.00
2019-01-26T03:28:33.271Z,100.00
2019-01-26T03:31:02.897Z,100.00
2019-01-26T03:33:32.217Z,100.00
2019-01-26T03:36:01.546Z,100.00
2019-01-26T03:38:30.859Z,100.00
2019-01-26T03:41:00.255Z,100.00
2019-01-26T03:43:29.676Z,100.00
2019-01-26T03:45:59.026Z,100.00
2019-01-26T03:48:28.350Z,100.00
2019-01-26T03:50:57.705Z,100.00
2019-01-26T03:53:27.044Z,100.00
2019-01-26T03:55:56.718Z,100.00
2019-01-26T03:58:26.073Z,100.00
2019-01-26T04:00:55.410Z,100.00
2019-01-26T04:03:24.826Z,100.00
2019-01-26T04:05:54.331Z,100.00
2019-01-26T04:08:23.829Z,100.00
2019-01-26T04:10:53.229Z,100.00
2019-01-26T04:13:22.625Z,100.00
2019-01-26T04:15:51.922Z,100.00
2019-01-26T04:18:21.370Z,100.00
2019-01-26T04:20:50.682Z,100.00
2019-01-26T04:23:20.091Z,100.00
2019-01-26T04:25:49.656Z,100.00
2019-01-26T04:28:19.089Z,100.00
2019-01-26T04:30:48.422Z,100.00
2019-01-26T04:33:17.807Z,100.00
2019-01-26T04:35:47.190Z,100.00
2019-01-26T04:38:16.654Z,100.00
2019-01-26T04:40:46.017Z,100.00
2019-01-26T04:43:15.349Z,100.00
2019-01-26T04:45:44.666Z,100.00
2019-01-26T04:48:14.082Z,100.00
2019-01-26T04:50:43.487Z,100.00
2019-01-26T04:53:13.040Z,99.95
2019-01-26T04:55:42.407Z,99.60
2019-01-26T04:58:11.874Z,99.24
2019-01-26T05:00:41.204Z,99.16
2019-01-26T05:03:10.611Z,98.82
2019-01-26T05:05:40.061Z,98.28
2019-01-26T05:08:09.393Z,97.78
2019-01-26T05:10:38.728Z,97.84
2019-01-26T05:13:08.119Z,97.20
2019-01-26T05:15:37.464Z,96.97
2019-01-26T05:18:06.895Z,96.19
2019-01-26T05:20:36.217Z,95.92
2019-01-26T05:23:05.593Z,96.09
2019-01-26T05:25:35.037Z,96.29
2019-01-26T05:28:04.694Z,95.70
2019-01-26T05:30:34.221Z,95.51
2019-01-26T05:33:03.560Z,95.03
2019-01-26T05:35:32.881Z,95.28
2019-01-26T05:38:02.435Z,95.01
2019-01-26T05:40:31.833Z,94.69
2019-01-26T05:43:01.174Z,94.40
2019-01-26T05:45:30.746Z,93.84
2019-01-26T05:48:00.392Z,93.56
2019-01-26T05:50:29.788Z,93.45
2019-01-26T05:52:59.229Z,93.18
2019-01-26T05:55:28.690Z,93.17
2019-01-26T05:57:58.068Z,93.13
2019-01-26T06:00:30.942Z,93.04
2019-01-26T06:03:00.276Z,92.57
2019-01-26T06:05:29.576Z,92.30
2019-01-26T06:07:59.253Z,91.91
2019-01-26T06:10:28.641Z,91.79
2019-01-26T06:12:58.914Z,91.70
2019-01-26T06:15:29.196Z,91.71
2019-01-26T06:17:58.530Z,91.73
2019-01-26T06:20:27.913Z,91.81
2019-01-26T06:22:57.265Z,91.62
2019-01-26T06:25:26.621Z,91.70
2019-01-26T06:27:56.047Z,91.69
2019-01-26T06:30:26.575Z,91.36
2019-01-26T06:32:56.595Z,91.14
2019-01-26T06:35:25.958Z,91.19
2019-01-26T06:37:55.478Z,90.94
2019-01-26T06:40:24.804Z,90.68
2019-01-26T06:42:54.250Z,90.78
2019-01-26T06:45:23.746Z,90.89
2019-01-26T06:47:53.106Z,90.67
2019-01-26T06:50:26.384Z,90.71
2019-01-26T06:52:55.768Z,90.38
2019-01-26T06:55:25.176Z,90.43
2019-01-26T06:57:54.621Z,90.43
2019-01-26T07:00:28.079Z,90.75
2019-01-26T07:02:57.416Z,91.04
2019-01-26T07:05:44.232Z,91.25
2019-01-26T07:08:18.520Z,91.18
2019-01-26T07:10:47.806Z,91.08
2019-01-26T07:13:17.118Z,91.13
2019-01-26T07:15:46.584Z,90.98
2019-01-26T07:18:16.014Z,90.53
2019-01-26T07:20:45.350Z,90.48
2019-01-26T07:23:14.714Z,90.85
2019-01-26T07:25:44.107Z,91.05
2019-01-26T07:28:13.458Z,90.60
2019-01-26T07:30:42.809Z,90.71
2019-01-26T07:33:12.275Z,90.90
2019-01-26T07:35:41.977Z,90.92
2019-01-26T07:38:13.642Z,91.33
2019-01-26T07:40:42.400Z,91.36
2019-01-26T07:43:11.720Z,91.24
2019-01-26T07:45:41.098Z,91.36
2019-01-26T07:48:16.764Z,91.15
2019-01-26T07:50:41.992Z,91.50
2019-01-26T07:53:11.324Z,91.70
2019-01-26T07:55:40.642Z,91.71
2019-01-26T07:58:09.996Z,91.61
2019-01-26T08:00:39.384Z,91.42
2019-01-26T08:03:08.715Z,91.88
2019-01-26T08:05:38.076Z,91.75
2019-01-26T08:08:07.416Z,92.14
2019-01-26T08:10:36.812Z,91.39
2019-01-26T08:13:06.663Z,91.72
2019-01-26T08:15:37.769Z,91.36
2019-01-26T08:18:08.701Z,91.97
2019-01-26T08:20:38.058Z,92.47
2019-01-26T08:23:07.478Z,85.35
2019-01-26T08:25:36.857Z,87.36
2019-01-26T08:28:06.328Z,87.64
2019-01-26T08:30:35.674Z,89.14
2019-01-26T08:33:05.017Z,89.77
2019-01-26T08:35:34.389Z,90.21
2019-01-26T08:38:03.820Z,90.26
2019-01-26T08:40:33.156Z,90.46
2019-01-26T08:43:04.125Z,90.88
2019-01-26T08:45:33.477Z,91.09
2019-01-26T08:48:02.844Z,91.29
2019-01-26T08:50:32.170Z,91.76
2019-01-26T08:53:01.510Z,92.44
2019-01-26T08:55:30.843Z,92.88
2019-01-26T08:58:00.212Z,92.69
2019-01-26T09:00:29.724Z,92.68
2019-01-26T09:03:17.978Z,92.72
2019-01-26T09:06:05.024Z,92.70
2019-01-26T09:08:34.347Z,92.91
2019-01-26T09:11:03.804Z,92.89
2019-01-26T09:13:33.133Z,92.68
2019-01-26T09:16:02.483Z,92.39
2019-01-26T09:18:38.555Z,91.85
2019-01-26T09:21:02.885Z,91.83
2019-01-26T09:23:32.208Z,91.76
2019-01-26T09:26:01.560Z,92.19
2019-01-26T09:28:30.961Z,92.05
2019-01-26T09:31:00.300Z,91.25
2019-01-26T09:33:29.644Z,91.25
2019-01-26T09:35:58.950Z,90.62
2019-01-26T09:38:28.268Z,90.19
2019-01-26T09:40:57.672Z,90.21
2019-01-26T09:43:27.089Z,88.98
2019-01-26T09:45:56.494Z,88.72
2019-01-26T09:48:25.820Z,88.26
2019-01-26T09:50:55.588Z,88.43
2019-01-26T09:53:24.978Z,87.05
2019-01-26T09:55:54.276Z,87.54
2019-01-26T09:58:23.681Z,87.71
2019-01-26T10:00:53.117Z,86.55
2019-01-26T10:03:22.525Z,87.58
2019-01-26T10:05:51.871Z,88.24
2019-01-26T10:08:21.239Z,87.48
2019-01-26T10:10:50.591Z,86.49
2019-01-26T10:13:20.002Z,86.42
2019-01-26T10:15:50.457Z,85.93
2019-01-26T10:18:19.821Z,86.02
2019-01-26T10:20:49.601Z,86.65
2019-01-26T10:23:18.926Z,86.71
2019-01-26T10:25:48.976Z,85.95
2019-01-26T10:28:18.362Z,85.93
2019-01-26T10:30:57.972Z,85.41
2019-01-26T10:33:27.320Z,85.35
2019-01-26T10:36:18.840Z,85.42
2019-01-26T10:39:11.547Z,84.95
2019-01-26T10:41:59.826Z,84.06
2019-01-26T10:44:33.201Z,83.92
2019-01-26T10:47:02.682Z,82.60
2019-01-26T10:49:32.016Z,83.10
2019-01-26T10:52:01.396Z,83.64
2019-01-26T10:54:30.778Z,83.26
2019-01-26T10:57:00.145Z,83.11
2019-01-26T10:59:29.588Z,82.79
2019-01-26T11:01:58.927Z,83.37
2019-01-26T11:04:28.252Z,82.88
2019-01-26T11:06:57.670Z,82.38
2019-01-26T11:09:27.094Z,82.74
2019-01-26T11:11:56.434Z,82.19
2019-01-26T11:14:25.887Z,82.57
2019-01-26T11:16:55.263Z,82.59
2019-01-26T11:19:24.711Z,83.33
2019-01-26T11:21:54.064Z,83.62
2019-01-26T11:24:23.432Z,83.50
2019-01-26T11:26:52.845Z,82.85
2019-01-26T11:29:22.194Z,83.36
2019-01-26T11:31:51.861Z,84.12
2019-01-26T11:34:21.253Z,83.27
2019-01-26T11:36:51.497Z,82.85
2019-01-26T11:39:20.814Z,83.33
2019-01-26T11:41:50.187Z,83.48
2019-01-26T11:44:19.705Z,82.08
2019-01-26T11:47:19.989Z,82.82
2019-01-26T11:49:57.035Z,82.08
2019-01-26T11:52:26.385Z,82.62
2019-01-26T11:55:14.753Z,83.21
2019-01-26T11:57:44.194Z,82.77
2019-01-26T12:00:45.358Z,83.23
2019-01-26T12:03:33.590Z,83.57
2019-01-26T12:06:13.315Z,83.84
2019-01-26T12:08:42.690Z,84.18
2019-01-26T12:11:12.066Z,84.21
2019-01-26T12:13:41.401Z,84.81
2019-01-26T12:16:10.758Z,84.17
2019-01-26T12:18:40.141Z,84.66
2019-01-26T12:21:09.553Z,84.19
2019-01-26T12:23:38.956Z,83.79
2019-01-26T12:26:09.665Z,84.33
2019-01-26T12:28:39.027Z,84.30
2019-01-26T12:31:08.466Z,83.42
2019-01-26T12:33:38.180Z,83.62
2019-01-26T12:36:07.543Z,83.25
2019-01-26T12:38:38.898Z,83.13
2019-01-26T12:41:08.353Z,82.69
2019-01-26T12:43:37.735Z,83.44
2019-01-26T12:46:07.129Z,83.54
2019-01-26T12:48:36.582Z,83.97
2019-01-26T12:51:06.051Z,83.73
2019-01-26T12:53:35.476Z,83.47
2019-01-26T12:56:05.929Z,83.26
2019-01-26T12:58:35.316Z,83.46
2019-01-26T13:01:05.480Z,83.99
2019-01-26T13:03:34.858Z,84.08
2019-01-26T13:06:04.191Z,83.66
2019-01-26T13:08:33.541Z,83.48
2019-01-26T13:11:08.029Z,84.13
2019-01-26T13:13:37.398Z,84.11
2019-01-26T13:16:07.108Z,83.61
2019-01-26T13:18:36.444Z,83.48
2019-01-26T13:21:07.387Z,84.01
2019-01-26T13:23:38.537Z,84.43
2019-01-26T13:26:08.648Z,84.64
2019-01-26T13:28:38.329Z,84.38
2019-01-26T13:31:07.888Z,84.27
2019-01-26T13:33:37.848Z,84.61
2019-01-26T13:36:08.561Z,83.69
2019-01-26T13:38:38.323Z,83.10
2019-01-26T13:41:07.854Z,83.28
2019-01-26T13:43:37.621Z,83.65
2019-01-26T13:46:08.050Z,83.61
2019-01-26T13:48:37.463Z,83.65
2019-01-26T13:51:12.926Z,83.65
2019-01-26T13:53:39.432Z,83.48
2019-01-26T13:56:08.842Z,82.79
2019-01-26T13:58:38.286Z,83.68
2019-01-26T14:01:07.659Z,83.79
2019-01-26T14:03:37.011Z,83.64
2019-01-26T14:06:06.764Z,83.52
2019-01-26T14:08:37.826Z,83.87
2019-01-26T14:11:07.296Z,84.47
2019-01-26T14:13:36.608Z,85.01
2019-01-26T14:16:06.224Z,85.65
2019-01-26T14:18:35.559Z,85.36
2019-01-26T14:21:04.876Z,86.30
2019-01-26T14:23:34.239Z,86.26
2019-01-26T14:26:03.664Z,86.70
2019-01-26T14:28:33.306Z,86.55
2019-01-26T14:31:06.464Z,85.92
2019-01-26T14:33:35.912Z,86.40
2019-01-26T14:36:05.321Z,87.20
2019-01-26T14:38:34.760Z,86.68
2019-01-26T14:41:04.268Z,87.15
2019-01-26T14:43:33.635Z,87.29
2019-01-26T14:46:02.928Z,86.92
2019-01-26T14:48:32.265Z,87.16
2019-01-26T14:51:01.618Z,87.76
2019-01-26T14:53:31.341Z,88.09
2019-01-26T14:56:00.738Z,88.32
2019-01-26T14:58:30.491Z,89.06
2019-01-26T15:00:59.801Z,88.70
2019-01-26T15:03:29.155Z,88.76
2019-01-26T15:05:58.473Z,89.11
2019-01-26T15:08:27.819Z,88.87
2019-01-26T15:10:57.157Z,89.64
2019-01-26T15:13:26.526Z,89.78
2019-01-26T15:15:55.836Z,89.91
2019-01-26T15:18:25.162Z,90.19
2019-01-26T15:20:54.764Z,89.93
2019-01-26T15:23:24.104Z,90.27
2019-01-26T15:25:53.432Z,90.37
2019-01-26T15:28:22.754Z,89.73
2019-01-26T15:30:52.120Z,89.84
2019-01-26T15:33:21.458Z,90.01
2019-01-26T15:35:50.817Z,90.30
2019-01-26T15:38:20.241Z,90.24
2019-01-26T15:40:49.610Z,90.18
2019-01-26T15:43:18.952Z,90.28
2019-01-26T15:45:49.967Z,90.38
2019-01-26T15:48:19.291Z,90.29
2019-01-26T15:50:48.637Z,90.25
2019-01-26T15:53:18.102Z,90.00
2019-01-26T15:55:47.451Z,90.11
2019-01-26T15:58:16.812Z,90.60
2019-01-26T16:00:46.813Z,90.92
2019-01-26T16:03:16.262Z,91.11
2019-01-26T16:05:45.613Z,90.92
2019-01-26T16:08:15.315Z,90.74
2019-01-26T16:10:44.654Z,90.68
2019-01-26T16:13:14.271Z,90.75
2019-01-26T16:15:43.702Z,90.77
2019-01-26T16:18:16.525Z,91.01
2019-01-26T16:20:45.883Z,90.99
2019-01-26T16:23:18.273Z,91.07
2019-01-26T16:25:47.637Z,91.36
2019-01-26T16:28:17.229Z,91.11
2019-01-26T16:30:46.610Z,91.14
2019-01-26T16:33:17.999Z,90.95
2019-01-26T16:35:47.369Z,91.22
2019-01-26T16:38:16.968Z,90.96
2019-01-26T16:40:46.330Z,90.98
2019-01-26T16:43:15.626Z,90.88
2019-01-26T16:45:44.933Z,90.77
2019-01-26T16:48:15.479Z,90.46
2019-01-26T16:50:44.812Z,90.39
2019-01-26T16:53:14.279Z,90.52
2019-01-26T16:55:44.725Z,90.72
2019-01-26T16:58:14.489Z,91.06
2019-01-26T17:00:55.308Z,90.67
2019-01-26T17:03:24.623Z,90.52
2019-01-26T17:05:53.973Z,90.41
2019-01-26T17:08:23.455Z,90.25
2019-01-26T17:10:53.629Z,90.35
2019-01-26T17:13:23.089Z,90.19
2019-01-26T17:15:52.394Z,90.63
2019-01-26T17:18:21.902Z,90.69
2019-01-26T17:20:51.495Z,90.55
2019-01-26T17:23:20.950Z,90.55
2019-01-26T17:25:50.315Z,90.53
2019-01-26T17:28:19.627Z,90.33
2019-01-26T17:30:48.975Z,89.87
2019-01-26T17:33:18.375Z,89.86
2019-01-26T17:35:47.783Z,90.12
2019-01-26T17:38:17.176Z,90.29
2019-01-26T17:40:54.358Z,90.36
2019-01-26T17:43:17.902Z,90.39
2019-01-26T17:45:47.281Z,90.11
2019-01-26T17:48:16.699Z,90.38
2019-01-26T17:50:46.461Z,90.30
2019-01-26T17:53:15.927Z,90.06
2019-01-26T17:55:45.322Z,89.44
2019-01-26T17:58:14.657Z,89.19
2019-01-26T18:00:56.663Z,88.85
2019-01-26T18:03:26.095Z,88.91
2019-01-26T18:05:55.520Z,89.22
2019-01-26T18:08:24.871Z,89.25
2019-01-26T18:10:54.562Z,89.21
2019-01-26T18:13:23.938Z,89.18
2019-01-26T18:15:53.322Z,89.36
2019-01-26T18:18:22.704Z,89.64
2019-01-26T18:20:52.026Z,89.79
2019-01-26T18:23:26.372Z,90.08
2019-01-26T18:25:55.956Z,90.49
2019-01-26T18:28:25.356Z,90.71
2019-01-26T18:30:54.684Z,90.84
2019-01-26T18:33:24.027Z,90.70
2019-01-26T18:35:53.356Z,90.71
2019-01-26T18:38:22.679Z,90.79
2019-01-26T18:40:52.106Z,91.09
2019-01-26T18:43:21.444Z,91.63
2019-01-26T18:45:50.757Z,92.17
2019-01-26T18:48:20.112Z,92.87
2019-01-26T18:50:56.078Z,93.37
2019-01-26T18:53:23.246Z,93.31
2019-01-26T18:55:52.596Z,93.44
2019-01-26T18:58:22.043Z,93.36
2019-01-26T19:00:52.475Z,93.33
2019-01-26T19:03:52.036Z,92.81
2019-01-26T19:06:21.344Z,92.67
2019-01-26T19:08:50.692Z,92.09
2019-01-26T19:11:27.376Z,91.66
2019-01-26T19:14:13.681Z,90.90
2019-01-26T19:16:43.443Z,90.26
2019-01-26T19:19:15.909Z,89.93
2019-01-26T19:24:37.074Z,88.97
2019-01-26T19:27:07.509Z,88.47
2019-01-26T19:29:37.444Z,88.77
2019-01-26T19:32:09.393Z,88.39
2019-01-26T19:34:46.300Z,88.54
2019-01-26T19:37:18.109Z,88.43
2019-01-26T19:39:47.501Z,88.19
2019-01-26T19:42:18.881Z,88.21
2019-01-26T19:44:48.508Z,88.33
2019-01-26T19:47:17.943Z,88.07
2019-01-26T19:49:47.279Z,87.77
2019-01-26T19:52:16.703Z,87.48
2019-01-26T19:54:46.096Z,87.22
2019-01-26T19:57:15.387Z,87.04
2019-01-26T19:59:46.509Z,87.16
2019-01-26T20:02:23.759Z,87.00
2019-01-26T20:04:53.941Z,87.21
2019-01-26T20:07:23.395Z,87.16
2019-01-26T20:09:52.734Z,87.06
2019-01-26T20:12:22.068Z,87.13
2019-01-26T20:14:54.586Z,86.93
2019-01-26T20:17:38.335Z,86.76
2019-01-26T20:20:10.441Z,86.76
2019-01-26T20:22:39.762Z,87.28
2019-01-26T20:25:09.408Z,87.20
2019-01-26T20:27:38.774Z,87.10
2019-01-26T20:30:11.183Z,86.87
2019-01-26T20:32:40.507Z,86.82
2019-01-26T20:35:09.844Z,87.06
2019-01-26T20:37:39.388Z,86.95
2019-01-26T20:40:11.076Z,87.16
2019-01-26T20:42:40.423Z,87.23
2019-01-26T20:45:12.534Z,87.40
2019-01-26T20:47:41.895Z,87.37
2019-01-26T20:50:12.761Z,87.66
2019-01-26T20:52:42.101Z,87.94
2019-01-26T20:55:11.810Z,88.08
2019-01-26T20:57:41.243Z,88.26
2019-01-26T21:00:14.476Z,88.17
2019-01-26T21:02:43.831Z,88.22
2019-01-26T21:05:13.177Z,88.21
2019-01-26T21:07:42.909Z,88.08
2019-01-26T21:10:16.017Z,88.39
2019-01-26T21:12:45.353Z,88.48
2019-01-26T21:15:14.789Z,88.54
2019-01-26T21:17:44.127Z,88.82
2019-01-26T21:20:14.644Z,88.95
2019-01-26T21:22:44.003Z,88.82
2019-01-26T21:25:13.479Z,88.86
2019-01-26T21:27:42.844Z,89.06
2019-01-26T21:30:17.999Z,89.31
2019-01-26T21:32:47.523Z,89.36
2019-01-26T21:35:16.874Z,89.25
2019-01-26T21:37:46.253Z,89.01
2019-01-26T21:40:18.704Z,88.95
2019-01-26T21:42:48.142Z,88.87
2019-01-26T21:45:17.936Z,88.75
2019-01-26T21:47:47.313Z,88.61
2019-01-26T21:50:19.158Z,88.59
2019-01-26T21:52:48.600Z,88.54
2019-01-26T21:55:18.012Z,88.47
2019-01-26T21:57:47.424Z,88.46
2019-01-26T22:00:19.403Z,88.24
2019-01-26T22:02:48.775Z,88.37
2019-01-26T22:05:18.140Z,88.60
2019-01-26T22:07:47.612Z,88.66
2019-01-26T22:10:18.286Z,88.84
2019-01-26T22:12:47.633Z,88.75
2019-01-26T22:15:19.012Z,88.93
2019-01-26T22:17:48.338Z,89.14
2019-01-26T22:20:25.593Z,89.30
2019-01-26T22:22:55.054Z,89.26
2019-01-26T22:25:24.525Z,89.33
2019-01-26T22:27:55.571Z,89.60
2019-01-26T22:30:27.133Z,89.59
2019-01-26T22:32:56.586Z,89.45
2019-01-26T22:35:25.908Z,89.71
2019-01-26T22:37:55.431Z,89.61
2019-01-26T22:40:29.752Z,89.50
2019-01-26T22:42:59.105Z,89.65
2019-01-26T22:45:28.685Z,89.71
2019-01-26T22:47:58.065Z,89.69
2019-01-26T22:50:27.579Z,89.66
2019-01-26T22:52:56.911Z,89.72
2019-01-26T22:55:26.207Z,89.85
2019-01-26T22:57:55.799Z,89.75
2019-01-26T23:00:59.741Z,89.67
2019-01-26T23:03:36.946Z,90.18
2019-01-26T23:06:26.564Z,90.17
2019-01-26T23:08:56.271Z,90.41
2019-01-26T23:11:42.168Z,90.54
2019-01-26T23:14:33.830Z,90.48
2019-01-26T23:17:54.349Z,90.41
2019-01-26T23:20:31.143Z,90.49
2019-01-26T23:23:29.088Z,90.59
2019-01-26T23:26:33.021Z,90.63
2019-01-26T23:29:52.549Z,90.43
2019-01-26T23:32:21.943Z,90.76
2019-01-26T23:34:51.316Z,90.87
2019-01-26T23:37:20.655Z,90.72
2019-01-26T23:39:49.973Z,90.82
2019-01-26T23:42:19.718Z,90.91
2019-01-26T23:44:49.062Z,91.26
2019-01-26T23:47:18.402Z,91.69
2019-01-26T23:49:47.751Z,91.50
2019-01-26T23:52:17.195Z,91.21
2019-01-26T23:54:46.547Z,91.59
2019-01-26T23:57:15.878Z,91.13
2019-01-26T23:59:45.196Z,90.97
